Time;durP1;ratioP1;P1;durP2;ratioP2;P2;SDS_P1;SDS_P2;PMS_P1;PMS_P2;Temp;Humidity;BMP_temperature;BMP_pressure;BME280_temperature;BME280_humidity;BME280_pressure;Samples;Min_cycle;Max_cycle;Signal;HPM_P1;HPM_P2
2021/07/26 00:00:51;;;;;;;18.65;14.35;;;;;;;19.13;100.00;100340.66;5015185;28;20044;-77
2021/07/26 00:03:17;;;;;;;18.67;14.65;;;;;;;19.10;100.00;100332.81;5018143;28;20041;-77
2021/07/26 00:05:55;;;;;;;16.33;14.05;;;;;;;19.09;100.00;100340.00;5018290;28;20548;-77
2021/07/26 00:08:33;;;;;;;16.40;14.60;;;;;;;19.15;100.00;100336.06;5029204;28;20037;-77
2021/07/26 00:11:01;;;;;;;17.48;14.68;;;;;;;19.04;100.00;100338.53;5022085;28;20056;-77
2021/07/26 00:13:28;;;;;;;19.27;13.77;;;;;;;19.01;100.00;100334.25;4997556;28;20083;-78
2021/07/26 00:15:55;;;;;;;18.45;14.63;;;;;;;18.98;100.00;100342.44;5013375;28;21564;-77
2021/07/26 00:18:22;;;;;;;17.02;14.48;;;;;;;19.04;99.61;100338.53;5030532;28;20052;-77
2021/07/26 00:20:49;;;;;;;16.73;14.95;;;;;;;19.06;100.00;100341.97;5017326;28;20107;-78
2021/07/26 00:23:16;;;;;;;18.48;14.82;;;;;;;18.97;100.00;100343.41;5029968;28;20033;-78
2021/07/26 00:25:42;;;;;;;17.45;15.13;;;;;;;18.91;100.00;100342.91;5048437;28;20037;-78
2021/07/26 00:28:09;;;;;;;17.60;14.50;;;;;;;18.93;100.00;100332.97;5012021;28;20040;-78
2021/07/26 00:30:36;;;;;;;20.33;15.27;;;;;;;18.96;100.00;100340.81;4996938;28;20137;-77
2021/07/26 00:33:39;;;;;;;19.98;16.17;;;;;;;18.96;100.00;100341.66;5031070;28;20029;-79
2021/07/26 00:36:06;;;;;;;17.05;15.05;;;;;;;18.87;100.00;100336.88;5007609;28;20041;-77
2021/07/26 00:38:32;;;;;;;18.70;14.85;;;;;;;18.93;100.00;100335.66;5016039;28;20033;-77
2021/07/26 00:40:59;;;;;;;16.58;14.85;;;;;;;18.87;100.00;100342.22;5028308;28;20118;-77
2021/07/26 00:43:26;;;;;;;17.75;15.52;;;;;;;18.87;100.00;100339.56;5048845;28;20037;-77
2021/07/26 00:45:52;;;;;;;16.45;14.70;;;;;;;18.86;100.00;100340.50;5029711;28;20048;-76
2021/07/26 00:48:19;;;;;;;17.38;15.00;;;;;;;18.85;100.00;100336.13;4998766;28;20137;-77
2021/07/26 00:50:46;;;;;;;18.55;14.93;;;;;;;18.82;100.00;100334.47;5024465;28;20045;-78
2021/07/26 00:53:12;;;;;;;18.50;15.70;;;;;;;18.90;100.00;100342.03;5030787;28;20035;-77
2021/07/26 00:55:41;;;;;;;17.75;15.68;;;;;;;18.89;100.00;100337.63;5023473;28;20041;-77
2021/07/26 00:58:08;;;;;;;17.30;15.27;;;;;;;18.88;100.00;100341.28;4998203;28;20045;-79
2021/07/26 01:00:34;;;;;;;18.35;15.05;;;;;;;18.87;100.00;100341.38;5019652;28;20045;-77
2021/07/26 01:03:01;;;;;;;17.33;15.40;;;;;;;18.89;100.00;100342.13;5010620;28;20048;-78
2021/07/26 01:05:28;;;;;;;17.05;14.93;;;;;;;18.92;100.00;100328.56;5012039;28;20618;-78
2021/07/26 01:07:55;;;;;;;18.67;16.15;;;;;;;18.97;100.00;100326.47;5012911;28;20052;-78
2021/07/26 01:10:21;;;;;;;16.83;15.02;;;;;;;18.89;100.00;100329.59;5000502;28;20041;-77
2021/07/26 01:12:48;;;;;;;18.10;15.98;;;;;;;18.88;100.00;100335.91;5029164;28;20137;-77
2021/07/26 01:15:15;;;;;;;16.63;14.75;;;;;;;18.91;100.00;100329.50;5044717;28;20033;-77
2021/07/26 01:18:26;;;;;;;19.13;15.77;;;;;;;18.94;100.00;100322.16;4996244;28;20395;-79
2021/07/26 01:21:07;;;;;;;18.35;15.18;;;;;;;18.99;100.00;100313.84;5025310;28;20037;-77
2021/07/26 01:23:36;;;;;;;18.70;15.05;;;;;;;19.00;100.00;100326.28;5029675;28;20654;-78
2021/07/26 01:26:04;;;;;;;17.73;15.65;;;;;;;19.00;100.00;100316.47;5028674;28;20044;-78
2021/07/26 01:28:34;;;;;;;19.08;16.17;;;;;;;18.95;100.00;100329.25;5012506;28;20041;-78
2021/07/26 01:31:01;;;;;;;17.98;16.05;;;;;;;18.95;100.00;100331.06;5031910;28;20033;-78
2021/07/26 01:33:28;;;;;;;17.65;15.45;;;;;;;18.93;100.00;100325.81;4996943;28;20417;-77
2021/07/26 01:35:54;;;;;;;18.75;16.05;;;;;;;18.92;100.00;100323.19;5011640;28;20559;-78
2021/07/26 01:38:21;;;;;;;18.98;16.63;;;;;;;18.97;100.00;100335.38;5009338;28;20041;-78
2021/07/26 01:40:53;;;;;;;17.63;15.77;;;;;;;19.02;100.00;100335.09;5011963;28;20398;-77
2021/07/26 01:43:21;;;;;;;17.58;15.77;;;;;;;18.94;100.00;100327.53;5030875;28;20371;-78
2021/07/26 01:45:55;;;;;;;17.98;15.82;;;;;;;19.00;100.00;100320.91;4995504;28;20033;-77
2021/07/26 01:48:24;;;;;;;18.58;16.33;;;;;;;18.97;100.00;100321.97;4996286;28;20064;-78
2021/07/26 01:50:53;;;;;;;18.88;15.45;;;;;;;19.02;100.00;100327.06;5027054;28;20120;-78
2021/07/26 01:53:20;;;;;;;20.23;17.30;;;;;;;19.01;100.00;100328.03;5016261;28;20533;-77
2021/07/26 01:55:46;;;;;;;17.55;15.55;;;;;;;19.07;100.00;100328.50;5015489;28;20037;-78
2021/07/26 01:58:13;;;;;;;19.67;16.30;;;;;;;19.00;100.00;100332.53;4999634;28;20040;-78
2021/07/26 02:00:40;;;;;;;19.75;16.48;;;;;;;19.04;100.00;100331.38;4999839;28;20068;-79
2021/07/26 02:03:06;;;;;;;19.27;17.05;;;;;;;19.02;100.00;100338.63;5016929;28;20068;-78
2021/07/26 02:05:33;;;;;;;20.42;16.38;;;;;;;18.98;100.00;100345.13;5032024;28;20060;-78
2021/07/26 02:08:00;;;;;;;19.92;17.77;;;;;;;19.00;100.00;100339.66;5009820;28;20072;-79
2021/07/26 02:10:26;;;;;;;19.50;15.98;;;;;;;18.97;100.00;100340.72;5044219;28;20041;-77
2021/07/26 02:12:53;;;;;;;19.45;17.23;;;;;;;18.97;100.00;100339.84;5001207;28;20063;-79
2021/07/26 02:15:20;;;;;;;19.05;16.40;;;;;;;18.98;100.00;100338.91;5027422;28;20079;-78
2021/07/26 02:17:46;;;;;;;20.30;18.05;;;;;;;19.01;100.00;100338.72;5014396;28;20033;-78
2021/07/26 02:20:13;;;;;;;21.50;17.33;;;;;;;19.03;100.00;100342.16;5012886;28;20437;-78
2021/07/26 02:22:40;;;;;;;18.85;16.92;;;;;;;19.00;100.00;100337.88;5015821;28;20037;-78
2021/07/26 02:25:07;;;;;;;20.17;17.48;;;;;;;19.04;100.00;100343.88;5015226;28;20094;-77
2021/07/26 02:27:34;;;;;;;18.73;16.63;;;;;;;18.99;100.00;100344.16;5030929;28;20441;-78
2021/07/26 02:30:00;;;;;;;19.50;17.52;;;;;;;18.98;100.00;100339.75;4999026;28;20624;-78
2021/07/26 02:32:27;;;;;;;20.67;17.20;;;;;;;19.01;100.00;100339.59;5030975;28;20129;-77
2021/07/26 02:34:54;;;;;;;20.30;16.48;;;;;;;18.99;100.00;100340.63;5030366;28;20095;-78
2021/07/26 02:37:21;;;;;;;18.60;16.60;;;;;;;19.02;100.00;100340.44;5011363;28;20442;-78
2021/07/26 02:39:49;;;;;;;19.13;16.55;;;;;;;18.97;100.00;100345.22;5014663;28;20091;-77
2021/07/26 02:42:16;;;;;;;21.60;17.80;;;;;;;18.94;100.00;100354.28;5030455;28;20449;-78
2021/07/26 02:44:43;;;;;;;21.23;18.27;;;;;;;19.01;100.00;100349.44;4999450;28;20032;-77
2021/07/26 02:47:09;;;;;;;19.27;16.65;;;;;;;18.96;100.00;100356.88;5007023;28;20507;-78
2021/07/26 02:49:36;;;;;;;19.65;17.10;;;;;;;18.95;100.00;100358.69;5012778;28;20040;-78
2021/07/26 02:52:03;;;;;;;18.63;16.65;;;;;;;18.97;100.00;100351.44;5030733;28;20067;-79
2021/07/26 02:54:30;;;;;;;18.55;16.45;;;;;;;18.98;100.00;100352.28;5044889;28;20048;-77
2021/07/26 02:56:56;;;;;;;19.05;17.05;;;;;;;18.99;100.00;100356.69;5012280;28;20099;-79
2021/07/26 02:59:23;;;;;;;20.02;17.20;;;;;;;18.98;100.00;100363.00;5014937;28;20044;-78
2021/07/26 03:01:51;;;;;;;19.70;17.52;;;;;;;18.99;100.00;100359.34;5013623;28;20037;-78
2021/07/26 03:04:18;;;;;;;20.40;17.77;;;;;;;19.02;100.00;100361.88;5029488;28;20518;-78
2021/07/26 03:06:45;;;;;;;21.73;18.50;;;;;;;19.10;100.00;100359.59;5027945;28;20580;-78
2021/07/26 03:09:11;;;;;;;22.85;18.48;;;;;;;19.06;100.00;100352.69;5045478;28;20048;-78
2021/07/26 03:11:38;;;;;;;19.27;16.85;;;;;;;19.02;100.00;100365.41;5012532;28;20045;-79
2021/07/26 03:14:05;;;;;;;23.25;19.02;;;;;;;19.05;100.00;100364.34;5012931;28;20042;-79
2021/07/26 03:16:32;;;;;;;20.60;17.55;;;;;;;19.00;100.00;100359.28;5012167;28;20600;-77
2021/07/26 03:18:58;;;;;;;19.67;17.35;;;;;;;19.00;100.00;100351.25;5030679;28;20086;-78
2021/07/26 03:21:25;;;;;;;20.52;18.33;;;;;;;18.99;100.00;100351.31;5027765;28;20754;-79
2021/07/26 03:23:52;;;;;;;19.15;17.10;;;;;;;18.94;100.00;100348.09;5029657;28;20091;-79
2021/07/26 03:26:19;;;;;;;22.17;19.83;;;;;;;18.94;100.00;100356.97;5029348;28;20082;-77
2021/07/26 03:28:46;;;;;;;21.95;19.08;;;;;;;18.92;100.00;100358.88;5025039;28;20830;-78
2021/07/26 03:31:13;;;;;;;20.42;18.25;;;;;;;18.93;100.00;100351.72;5045004;28;20037;-78
2021/07/26 03:33:39;;;;;;;21.02;18.33;;;;;;;18.94;100.00;100354.28;5030439;28;20040;-78
2021/07/26 03:36:07;;;;;;;22.33;19.27;;;;;;;18.96;100.00;100352.38;5030195;28;20049;-78
2021/07/26 03:38:33;;;;;;;21.20;18.98;;;;;;;18.93;100.00;100352.56;5014796;28;20441;-78
2021/07/26 03:41:00;;;;;;;22.20;19.23;;;;;;;18.88;100.00;100354.66;4998193;28;20056;-78
2021/07/26 03:43:29;;;;;;;22.60;19.42;;;;;;;18.87;100.00;100357.44;5031051;28;20056;-77
2021/07/26 03:45:56;;;;;;;22.27;19.40;;;;;;;18.83;100.00;100354.94;5013041;28;20075;-78
2021/07/26 03:48:22;;;;;;;21.75;18.67;;;;;;;18.83;100.00;100359.41;5015000;28;20115;-78
2021/07/26 03:50:49;;;;;;;22.00;18.77;;;;;;;18.90;100.00;100357.22;5013054;28;20099;-77
2021/07/26 03:53:17;;;;;;;24.08;20.38;;;;;;;18.92;100.00;100353.53;5014737;28;20086;-78
2021/07/26 03:55:44;;;;;;;23.00;19.63;;;;;;;18.87;100.00;100344.91;5018076;28;20057;-77
2021/07/26 03:58:11;;;;;;;22.17;18.75;;;;;;;18.88;100.00;100348.44;4997971;28;21728;-78
2021/07/26 04:00:37;;;;;;;23.25;20.13;;;;;;;18.86;100.00;100353.91;5007019;28;20050;-77
2021/07/26 04:03:30;;;;;;;23.20;20.60;;;;;;;18.87;100.00;100352.06;4998759;28;20037;-77
2021/07/26 04:08:22;;;;;;;26.42;21.77;;;;;;;18.84;100.00;100350.44;5013848;28;20056;-78
2021/07/26 04:11:01;;;;;;;25.45;20.75;;;;;;;18.84;100.00;100342.41;5029311;28;20155;-78
2021/07/26 04:13:28;;;;;;;23.58;21.08;;;;;;;18.81;100.00;100348.81;5029271;28;20418;-78
2021/07/26 04:15:54;;;;;;;24.85;21.85;;;;;;;18.75;100.00;100348.28;5022320;28;20037;-78
2021/07/26 04:18:21;;;;;;;23.73;20.48;;;;;;;18.76;100.00;100348.22;5013676;28;20482;-79
2021/07/26 04:20:48;;;;;;;27.17;22.40;;;;;;;18.78;100.00;100346.31;5029189;28;20452;-77
2021/07/26 04:23:14;;;;;;;27.38;22.00;;;;;;;18.73;100.00;100347.53;5030587;28;20114;-77
2021/07/26 04:25:41;;;;;;;25.42;21.50;;;;;;;18.71;100.00;100338.75;5011017;28;20641;-78
2021/07/26 04:28:08;;;;;;;24.27;21.58;;;;;;;18.72;100.00;100346.66;5024765;28;20094;-79
2021/07/26 04:30:34;;;;;;;27.33;22.52;;;;;;;18.80;100.00;100351.56;5029402;28;20041;-78
2021/07/26 04:33:01;;;;;;;28.60;22.95;;;;;;;18.85;100.00;100352.19;5014626;28;20049;-79
2021/07/26 04:35:27;;;;;;;26.08;22.35;;;;;;;18.78;100.00;100358.84;5028976;28;20516;-79
2021/07/26 04:37:54;;;;;;;25.33;22.35;;;;;;;18.77;100.00;100357.13;4997708;28;20041;-77
2021/07/26 04:40:21;;;;;;;24.73;21.27;;;;;;;18.73;100.00;100364.44;5011755;28;20045;-79
2021/07/26 04:42:47;;;;;;;26.25;22.23;;;;;;;18.78;100.00;100369.53;5012673;28;20102;-77
2021/07/26 04:45:14;;;;;;;23.98;21.40;;;;;;;18.75;100.00;100365.25;5011997;28;20041;-79
2021/07/26 04:47:41;;;;;;;24.17;21.52;;;;;;;18.76;100.00;100366.09;5012193;28;20498;-78
2021/07/26 04:50:08;;;;;;;26.05;20.92;;;;;;;18.80;100.00;100367.63;5012379;28;20501;-78
2021/07/26 04:52:35;;;;;;;26.52;21.88;;;;;;;18.82;100.00;100371.06;5029018;28;20033;-77
2021/07/26 04:55:02;;;;;;;27.55;21.17;;;;;;;18.84;100.00;100367.38;5043065;28;20045;-78
2021/07/26 04:57:29;;;;;;;25.52;22.83;;;;;;;18.88;100.00;100365.38;5010703;28;20044;-78
2021/07/26 04:59:56;;;;;;;25.52;22.25;;;;;;;18.93;100.00;100367.78;5028127;28;20049;-78
2021/07/26 05:02:23;;;;;;;24.95;21.90;;;;;;;18.92;100.00;100366.03;5027425;28;20547;-78
2021/07/26 05:04:50;;;;;;;25.58;21.85;;;;;;;18.97;100.00;100364.81;5051526;28;20067;-79
2021/07/26 05:07:19;;;;;;;22.60;20.20;;;;;;;18.99;100.00;100365.56;5012790;28;20108;-78
2021/07/26 05:09:45;;;;;;;27.40;22.35;;;;;;;18.98;100.00;100366.53;5013310;28;20037;-78
2021/07/26 05:12:12;;;;;;;25.20;22.40;;;;;;;18.97;100.00;100370.16;5011650;28;20444;-78
2021/07/26 05:14:40;;;;;;;25.92;21.60;;;;;;;18.94;100.00;100373.03;5012712;28;20063;-79
2021/07/26 05:17:08;;;;;;;23.73;20.88;;;;;;;18.95;100.00;100364.03;5026006;28;20091;-79
2021/07/26 05:19:35;;;;;;;25.30;21.27;;;;;;;18.97;100.00;100367.50;5009080;28;20045;-78
2021/07/26 05:22:03;;;;;;;25.30;20.90;;;;;;;19.06;100.00;100366.94;5011471;28;20045;-78
2021/07/26 05:24:29;;;;;;;25.02;22.35;;;;;;;19.04;100.00;100368.84;5032227;28;20056;-78
2021/07/26 05:27:07;;;;;;;23.08;20.48;;;;;;;19.05;100.00;100367.03;5011389;28;20042;-77
2021/07/26 05:29:34;;;;;;;23.83;20.65;;;;;;;19.07;100.00;100362.44;5032444;28;20116;-78
2021/07/26 05:32:00;;;;;;;27.00;22.33;;;;;;;19.11;100.00;100364.84;5032411;28;20040;-79
2021/07/26 05:34:27;;;;;;;23.45;20.75;;;;;;;19.11;100.00;100362.16;5015244;28;20040;-79
2021/07/26 05:36:54;;;;;;;24.80;22.10;;;;;;;19.16;100.00;100366.38;5015495;28;20045;-77
2021/07/26 05:39:24;;;;;;;26.02;22.35;;;;;;;19.24;100.00;100370.31;5017721;28;20090;-78
2021/07/26 05:41:52;;;;;;;22.85;20.40;;;;;;;19.25;100.00;100373.84;5032439;28;20045;-78
2021/07/26 05:44:18;;;;;;;28.60;23.08;;;;;;;19.34;100.00;100371.50;5014472;28;20044;-78
2021/07/26 05:46:45;;;;;;;24.30;21.70;;;;;;;19.32;100.00;100375.19;5014242;28;20094;-78
2021/07/26 05:49:12;;;;;;;25.42;21.17;;;;;;;19.32;100.00;100384.09;5033024;28;20620;-77
2021/07/26 05:51:38;;;;;;;24.90;22.20;;;;;;;19.50;100.00;100378.56;4999092;28;20061;-76
2021/07/26 05:54:05;;;;;;;25.52;22.80;;;;;;;19.43;100.00;100372.75;5032060;28;20048;-78
2021/07/26 05:56:38;;;;;;;25.45;22.65;;;;;;;19.41;100.00;100371.94;5040254;28;20091;-79
2021/07/26 05:59:04;;;;;;;26.48;22.88;;;;;;;19.47;100.00;100373.41;5016309;28;20048;-78
2021/07/26 06:01:47;;;;;;;25.02;22.23;;;;;;;19.51;100.00;100372.28;5030277;28;20049;-78
2021/07/26 06:04:18;;;;;;;25.25;21.45;;;;;;;19.60;100.00;100374.41;5009590;28;20040;-78
2021/07/26 06:06:48;;;;;;;25.65;21.75;;;;;;;19.74;100.00;100373.53;5027805;28;20041;-79
2021/07/26 06:09:15;;;;;;;24.30;20.95;;;;;;;19.78;100.00;100373.25;4997298;28;20176;-78
2021/07/26 06:11:42;;;;;;;25.25;22.40;;;;;;;19.85;100.00;100387.13;5017443;28;20498;-78
2021/07/26 06:14:10;;;;;;;23.52;20.90;;;;;;;20.01;100.00;100384.31;5031594;28;20041;-78
2021/07/26 06:16:43;;;;;;;22.95;20.02;;;;;;;20.03;100.00;100394.00;5013302;28;20661;-78
2021/07/26 06:19:10;;;;;;;22.42;20.02;;;;;;;20.11;100.00;100391.69;5015319;28;20036;-78
2021/07/26 06:21:48;;;;;;;24.08;20.35;;;;;;;20.25;100.00;100383.59;5014382;28;20048;-78
2021/07/26 06:24:15;;;;;;;23.00;20.50;;;;;;;20.32;100.00;100383.19;5033379;28;20098;-78
2021/07/26 06:26:43;;;;;;;22.70;19.27;;;;;;;20.46;95.22;100375.16;5012992;28;20053;-77
2021/07/26 06:29:10;;;;;;;23.15;20.05;;;;;;;20.46;99.59;100380.50;5047336;28;20437;-78
2021/07/26 06:31:37;;;;;;;23.73;20.30;;;;;;;20.53;98.94;100387.22;5031345;28;20049;-77
2021/07/26 06:34:04;;;;;;;24.13;19.70;;;;;;;20.49;94.12;100386.53;5014198;28;20037;-78
2021/07/26 06:36:31;;;;;;;21.55;19.15;;;;;;;20.64;92.90;100387.34;5013170;28;20049;-76
2021/07/26 06:38:58;;;;;;;23.23;19.83;;;;;;;20.75;90.40;100386.63;4999895;28;20029;-78
2021/07/26 06:41:24;;;;;;;22.50;19.95;;;;;;;20.75;95.14;100392.00;5009478;28;20076;-78
2021/07/26 06:43:52;;;;;;;22.58;19.50;;;;;;;20.79;94.54;100386.31;5008494;28;20045;-78
2021/07/26 06:46:20;;;;;;;21.55;19.25;;;;;;;20.89;92.61;100394.63;5043311;28;20045;-77
2021/07/26 06:48:47;;;;;;;22.73;20.27;;;;;;;20.99;93.00;100390.34;5009626;28;20045;-78
2021/07/26 06:51:13;;;;;;;22.13;19.73;;;;;;;21.00;92.85;100393.88;5005760;28;20040;-78
2021/07/26 06:53:40;;;;;;;22.88;19.30;;;;;;;20.97;90.24;100397.66;5011729;28;20045;-77
2021/07/26 06:56:08;;;;;;;23.48;19.63;;;;;;;21.05;90.32;100397.97;4997152;28;20094;-77
2021/07/26 06:58:35;;;;;;;21.60;18.70;;;;;;;21.11;91.70;100409.28;5012182;28;20033;-78
2021/07/26 07:01:03;;;;;;;23.80;20.13;;;;;;;21.19;88.27;100409.59;5007346;28;20414;-78
2021/07/26 07:03:31;;;;;;;22.33;18.55;;;;;;;21.18;90.24;100410.56;5029068;28;20040;-78
2021/07/26 07:06:06;;;;;;;23.10;20.70;;;;;;;21.31;88.85;100409.66;5013297;28;20041;-77
2021/07/26 07:08:33;;;;;;;21.92;19.63;;;;;;;21.32;88.97;100406.00;5031906;28;20049;-77
2021/07/26 07:11:04;;;;;;;20.90;18.73;;;;;;;21.46;88.34;100410.44;5028957;28;20504;-78
2021/07/26 07:13:32;;;;;;;21.70;19.50;;;;;;;21.52;87.87;100415.34;5012002;28;20063;-79
2021/07/26 07:15:59;;;;;;;21.00;18.80;;;;;;;21.49;87.54;100415.56;5029339;28;20037;-78
2021/07/26 07:18:26;;;;;;;22.13;19.67;;;;;;;21.50;87.66;100409.22;5013048;28;20041;-78
2021/07/26 07:20:52;;;;;;;21.73;19.50;;;;;;;21.48;85.86;100418.38;4997087;28;20049;-78
2021/07/26 07:23:19;;;;;;;22.65;19.00;;;;;;;21.56;85.99;100422.25;5045424;28;20033;-79
2021/07/26 07:25:46;;;;;;;20.75;18.70;;;;;;;21.61;84.16;100409.38;5014676;28;20041;-77
2021/07/26 07:28:12;;;;;;;21.02;18.92;;;;;;;21.71;86.07;100416.78;5008929;28;20037;-78
2021/07/26 07:30:39;;;;;;;21.73;19.35;;;;;;;21.76;85.06;100418.16;5024709;28;20140;-78
2021/07/26 07:33:06;;;;;;;21.55;19.35;;;;;;;21.80;84.71;100411.59;5012489;28;20409;-77
2021/07/26 07:35:33;;;;;;;23.65;20.27;;;;;;;22.04;79.83;100405.44;5011450;28;20045;-77
2021/07/26 07:38:00;;;;;;;21.25;18.92;;;;;;;22.09;82.63;100406.84;5012113;28;20036;-78
2021/07/26 07:40:27;;;;;;;20.65;18.55;;;;;;;22.16;82.37;100405.44;5008784;28;20076;-78
2021/07/26 07:42:54;;;;;;;20.38;18.17;;;;;;;22.30;82.70;100412.50;5013437;28;20049;-77
2021/07/26 07:45:21;;;;;;;20.08;18.05;;;;;;;22.54;79.91;100409.00;5026798;28;20091;-79
2021/07/26 07:47:48;;;;;;;20.73;18.70;;;;;;;22.66;79.74;100413.44;5046856;28;20048;-78
2021/07/26 07:50:17;;;;;;;21.25;19.05;;;;;;;22.76;78.78;100409.09;5037482;28;20128;-77
2021/07/26 07:52:44;;;;;;;20.35;18.25;;;;;;;22.75;77.41;100407.38;5047674;28;20033;-78
2021/07/26 07:55:11;;;;;;;20.00;17.80;;;;;;;22.92;74.30;100409.69;5039627;28;20045;-78
2021/07/26 07:57:38;;;;;;;22.27;19.95;;;;;;;22.99;72.28;100402.84;5042337;28;20036;-78
2021/07/26 08:00:06;;;;;;;20.92;18.88;;;;;;;23.14;74.40;100406.22;5028398;28;20040;-79
2021/07/26 08:02:33;;;;;;;20.88;18.77;;;;;;;23.33;71.41;100402.09;4996757;28;20048;-78
2021/07/26 08:05:00;;;;;;;22.67;20.25;;;;;;;23.68;74.31;100410.13;5014003;28;20447;-78
2021/07/26 08:07:26;;;;;;;21.35;19.25;;;;;;;23.73;68.90;100410.66;5041380;28;20033;-78
2021/07/26 08:09:53;;;;;;;19.75;17.77;;;;;;;23.89;71.81;100418.38;5010624;28;20049;-78
2021/07/26 08:12:20;;;;;;;20.92;18.73;;;;;;;23.96;68.22;100414.19;5025755;28;20048;-77
2021/07/26 08:14:47;;;;;;;21.55;18.70;;;;;;;24.09;68.43;100415.78;5014966;28;20136;-78
2021/07/26 08:17:14;;;;;;;20.60;18.55;;;;;;;24.07;67.49;100415.06;5010798;28;20059;-78
2021/07/26 08:19:41;;;;;;;20.77;18.58;;;;;;;24.09;68.91;100413.09;5004274;28;20067;-78
2021/07/26 08:22:08;;;;;;;21.38;19.17;;;;;;;24.19;70.17;100407.78;5012124;28;20041;-77
2021/07/26 08:24:34;;;;;;;20.95;19.05;;;;;;;23.95;67.67;100410.63;5029355;28;20053;-78
2021/07/26 08:27:01;;;;;;;19.23;17.23;;;;;;;24.39;69.14;100400.81;5026668;28;20044;-78
2021/07/26 08:29:27;;;;;;;21.02;18.85;;;;;;;24.64;67.81;100403.22;5026447;22;20041;-82
2021/07/26 08:31:54;;;;;;;19.65;17.58;;;;;;;24.77;66.76;100405.72;5032343;28;20076;-85
2021/07/26 08:34:21;;;;;;;21.30;18.92;;;;;;;24.46;68.70;100393.91;5035579;28;20067;-85
2021/07/26 08:36:47;;;;;;;22.15;19.05;;;;;;;24.42;70.67;100398.72;5021431;28;20040;-84
2021/07/26 08:39:14;;;;;;;20.95;18.67;;;;;;;24.70;68.75;100402.66;5024303;28;20041;-84
2021/07/26 08:41:41;;;;;;;20.90;18.85;;;;;;;24.78;67.03;100406.59;5024112;28;20044;-83
2021/07/26 08:44:08;;;;;;;19.85;17.85;;;;;;;24.98;67.34;100408.47;5031138;28;20059;-84
2021/07/26 08:46:35;;;;;;;20.20;18.15;;;;;;;24.92;64.85;100411.69;5021321;28;20048;-84
2021/07/26 08:49:02;;;;;;;22.67;20.02;;;;;;;25.08;66.32;100417.56;5029122;28;20136;-85
2021/07/26 08:51:29;;;;;;;20.52;18.50;;;;;;;25.22;65.64;100414.53;5027503;28;20648;-85
2021/07/26 08:53:59;;;;;;;20.13;18.23;;;;;;;25.38;65.57;100408.63;5021308;28;20047;-84
2021/07/26 08:56:46;;;;;;;20.63;18.63;;;;;;;25.24;63.74;100409.84;5037928;28;20156;-85
2021/07/26 08:59:12;;;;;;;21.23;19.05;;;;;;;25.67;63.49;100399.84;5055353;28;20033;-85
2021/07/26 09:01:43;;;;;;;20.25;18.25;;;;;;;25.96;64.09;100392.75;5034756;28;20102;-85
2021/07/26 09:04:09;;;;;;;21.73;19.58;;;;;;;26.31;64.48;100397.69;5038902;28;20048;-85
2021/07/26 09:06:39;;;;;;;20.63;18.60;;;;;;;26.85;63.24;100399.09;5041186;28;20047;-85
2021/07/26 09:09:06;;;;;;;19.90;17.92;;;;;;;27.15;61.98;100398.09;5041417;28;20044;-83
2021/07/26 09:11:45;;;;;;;19.00;17.20;;;;;;;27.15;59.17;100395.38;5023978;28;20067;-84
2021/07/26 09:14:38;;;;;;;22.08;19.17;;;;;;;27.12;60.66;100398.41;5033716;28;20098;-83
2021/07/26 09:17:09;;;;;;;20.80;18.70;;;;;;;26.31;60.25;100410.38;5036518;28;20490;-85
2021/07/26 09:20:09;;;;;;;20.73;18.73;;;;;;;26.68;60.21;100409.78;5034064;28;20401;-85
2021/07/26 09:22:39;;;;;;;21.80;19.15;;;;;;;26.69;58.71;100401.50;5023840;28;20053;-84
2021/07/26 09:25:21;;;;;;;20.17;18.10;;;;;;;26.73;61.24;100408.34;5038084;28;20119;-83
2021/07/26 09:28:03;;;;;;;22.65;20.25;;;;;;;26.82;60.74;100412.06;5033131;28;20041;-83
2021/07/26 09:30:33;;;;;;;22.00;19.75;;;;;;;27.11;57.23;100412.97;5038424;28;20052;-82
2021/07/26 09:33:04;;;;;;;22.08;19.88;;;;;;;27.15;56.78;100408.09;5042103;28;20258;-83
2021/07/26 09:35:31;;;;;;;20.33;18.42;;;;;;;27.47;58.30;100405.91;5040895;28;20048;-83
2021/07/26 09:38:02;;;;;;;25.20;20.75;;;;;;;27.61;57.00;100406.47;5042441;28;20040;-84
2021/07/26 09:40:33;;;;;;;20.75;18.65;;;;;;;27.90;57.43;100400.94;5044299;28;20079;-82
2021/07/26 09:43:21;;;;;;;20.65;18.55;;;;;;;28.09;57.19;100402.75;5058418;28;20036;-84
2021/07/26 09:45:49;;;;;;;19.00;17.23;;;;;;;28.24;56.94;100407.50;5054300;28;20082;-83
2021/07/26 09:48:17;;;;;;;21.83;19.70;;;;;;;28.07;56.14;100410.16;5040992;28;20468;-83
2021/07/26 09:50:49;;;;;;;21.00;18.90;;;;;;;27.98;57.17;100407.34;5038368;28;20037;-82
2021/07/26 09:53:22;;;;;;;21.42;19.33;;;;;;;27.82;54.59;100404.41;5053371;28;20032;-82
2021/07/26 09:56:05;;;;;;;19.98;18.08;;;;;;;27.77;56.87;100410.28;5030619;28;20049;-82
2021/07/26 09:58:38;;;;;;;21.20;19.10;;;;;;;27.61;56.58;100403.75;5061893;28;20594;-82
2021/07/26 10:01:06;;;;;;;20.88;18.88;;;;;;;26.98;57.03;100397.94;5015178;28;20052;-82
2021/07/26 10:03:34;;;;;;;22.67;20.38;;;;;;;27.32;56.81;100404.66;5038004;28;20044;-82
2021/07/26 10:06:00;;;;;;;21.60;19.60;;;;;;;27.62;57.03;100402.75;5020079;28;20044;-82
2021/07/26 10:08:28;;;;;;;21.00;18.90;;;;;;;27.91;56.44;100408.09;5037118;28;20474;-82
2021/07/26 10:10:57;;;;;;;18.95;17.23;;;;;;;28.12;54.49;100403.28;5015689;28;20041;-81
2021/07/26 10:13:24;;;;;;;19.67;17.60;;;;;;;28.41;55.05;100403.13;5034497;28;20094;-82
2021/07/26 10:15:51;;;;;;;19.05;17.15;;;;;;;28.66;52.24;100397.97;5034653;28;20036;-81
2021/07/26 10:18:18;;;;;;;19.50;17.55;;;;;;;28.84;51.85;100390.66;5018225;28;20045;-82
2021/07/26 10:20:48;;;;;;;19.98;17.90;;;;;;;28.93;50.70;100399.81;5017688;28;20041;-81
2021/07/26 10:23:30;;;;;;;17.77;16.08;;;;;;;29.16;50.69;100390.13;5021116;28;20048;-80
2021/07/26 10:25:59;;;;;;;18.38;16.58;;;;;;;29.45;51.25;100398.03;5042262;28;20041;-80
2021/07/26 10:28:31;;;;;;;16.25;14.75;;;;;;;29.51;46.90;100396.53;5036750;28;20056;-82
2021/07/26 10:30:58;;;;;;;17.35;15.70;;;;;;;29.33;46.55;100389.25;5018990;28;20052;-80
2021/07/26 10:33:24;;;;;;;16.00;14.30;;;;;;;29.56;46.64;100388.75;5020904;28;20134;-80
2021/07/26 10:35:55;;;;;;;17.02;15.43;;;;;;;29.43;46.09;100389.16;5017004;28;20067;-81
2021/07/26 10:38:46;;;;;;;17.48;15.52;;;;;;;29.25;44.05;100385.59;5033301;28;20029;-82
2021/07/26 10:41:48;;;;;;;16.85;15.15;;;;;;;29.76;45.98;100375.75;5031405;28;20115;-81
2021/07/26 10:44:15;;;;;;;17.10;15.38;;;;;;;29.40;43.17;100378.59;5049234;28;20525;-82
2021/07/26 10:46:51;;;;;;;17.15;15.55;;;;;;;29.47;43.78;100376.94;5029306;28;20052;-83
2021/07/26 10:49:18;;;;;;;16.83;15.25;;;;;;;29.75;45.05;100379.50;5045149;28;20043;-83
2021/07/26 10:51:51;;;;;;;17.30;15.65;;;;;;;29.65;46.33;100375.03;5014093;28;20068;-81
2021/07/26 10:54:34;;;;;;;17.48;15.88;;;;;;;29.81;48.73;100365.25;5026140;28;20049;-82
2021/07/26 10:57:01;;;;;;;19.02;17.17;;;;;;;29.76;46.53;100367.59;5047088;28;20507;-85
2021/07/26 10:59:28;;;;;;;17.35;15.75;;;;;;;30.01;44.69;100363.97;5030708;28;20049;-84
2021/07/26 11:02:05;;;;;;;18.20;16.50;;;;;;;29.98;44.51;100370.59;5047842;28;20040;-82
2021/07/26 11:04:35;;;;;;;17.40;15.60;;;;;;;29.96;44.87;100364.47;5034427;28;20041;-80
2021/07/26 11:07:04;;;;;;;19.00;16.38;;;;;;;29.86;44.30;100355.59;5016609;28;20052;-81
2021/07/26 11:09:36;;;;;;;18.17;16.30;;;;;;;29.79;43.50;100354.53;5044595;28;20036;-82
2021/07/26 11:12:05;;;;;;;18.20;16.52;;;;;;;29.26;47.71;100352.81;5043951;28;20075;-83
2021/07/26 11:14:32;;;;;;;17.85;16.15;;;;;;;29.63;45.68;100341.69;5047786;28;20049;-83